aviador You're here:

PAPN Decoded Metar

PILOT POINT in AK, USA
Report Time2018-06-23 13:37:00
UTC Time2018-06-23 13:48:31
Flight Rules vfr VFR
Wind170° at 04 kt
W.Decomp.*RWY 07: 0.5 kt HW 4.0 kt RCW
W.Rank170° ranks 27
Current wind is below 170° avg. (9.9)
Visibility9999 m
Phenomena:N/A
Clouds:Few 001 Hf
Overcast 060 Hf
Ceiling6,000 ft
Temp07°C (ISA -8)
Dew Point07°C (100% RH)
AAT4.9°C
QNH1020 hPa
Density Alt-991 ft
Elevation59 ft
Report Wrong Elevation
Raw Report
PAPN 231337Z AUTO 17004KT 7SM FEW001 OVC060 07/07 A3011 RMK
AO2=

Extra information for PAPN:More info

Metar Taf Metar & Taf Last 4 Metars F.Rules Stats Wind Profile Meteogram Temp Stats Airport Information Weather charts Add Link Nearby VenuesMetar ALERT Operation Metar Decoded Social comments

AIRNAV info for PAPN